sensor_id;sensor_type;location;lat;lon;timestamp;P1;durP1;ratioP1;P2;durP2;ratioP2
7607;SDS011;3845;48.120;11.534;2023-07-13T00:00:10;2.37;;;2.03;;
7607;SDS011;3845;48.120;11.534;2023-07-13T00:02:36;2.60;;;2.20;;
7607;SDS011;3845;48.120;11.534;2023-07-13T00:05:01;4.10;;;2.20;;
7607;SDS011;3845;48.120;11.534;2023-07-13T00:07:27;2.23;;;2.03;;
7607;SDS011;3845;48.120;11.534;2023-07-13T00:09:52;2.23;;;2.00;;
7607;SDS011;3845;48.120;11.534;2023-07-13T00:12:28;2.30;;;2.07;;
7607;SDS011;3845;48.120;11.534;2023-07-13T00:14:56;2.77;;;2.20;;
7607;SDS011;3845;48.120;11.534;2023-07-13T00:17:23;2.90;;;2.50;;
7607;SDS011;3845;48.120;11.534;2023-07-13T00:19:49;3.40;;;2.13;;
7607;SDS011;3845;48.120;11.534;2023-07-13T00:22:14;3.30;;;2.23;;
7607;SDS011;3845;48.120;11.534;2023-07-13T00:24:39;4.03;;;2.40;;
7607;SDS011;3845;48.120;11.534;2023-07-13T00:27:06;5.67;;;2.30;;
7607;SDS011;3845;48.120;11.534;2023-07-13T00:29:33;2.67;;;2.30;;
7607;SDS011;3845;48.120;11.534;2023-07-13T00:31:58;2.27;;;2.00;;
7607;SDS011;3845;48.120;11.534;2023-07-13T00:34:24;2.40;;;2.00;;
7607;SDS011;3845;48.120;11.534;2023-07-13T00:36:49;1.97;;;1.80;;
7607;SDS011;3845;48.120;11.534;2023-07-13T00:39:14;2.30;;;2.10;;
7607;SDS011;3845;48.120;11.534;2023-07-13T00:41:40;2.17;;;1.97;;
7607;SDS011;3845;48.120;11.534;2023-07-13T00:44:08;2.10;;;1.90;;
7607;SDS011;3845;48.120;11.534;2023-07-13T00:46:38;2.30;;;2.10;;
7607;SDS011;3845;48.120;11.534;2023-07-13T00:49:04;2.40;;;2.07;;
7607;SDS011;3845;48.120;11.534;2023-07-13T00:51:34;3.43;;;2.00;;
7607;SDS011;3845;48.120;11.534;2023-07-13T00:54:03;2.70;;;2.43;;
7607;SDS011;3845;48.120;11.534;2023-07-13T00:56:31;3.03;;;2.10;;
7607;SDS011;3845;48.120;11.534;2023-07-13T00:58:58;3.13;;;2.00;;
7607;SDS011;3845;48.120;11.534;2023-07-13T01:01:24;2.20;;;1.77;;
7607;SDS011;3845;48.120;11.534;2023-07-13T01:03:50;2.13;;;1.93;;
7607;SDS011;3845;48.120;11.534;2023-07-13T01:06:15;1.93;;;1.80;;
7607;SDS011;3845;48.120;11.534;2023-07-13T01:08:42;2.03;;;1.80;;
7607;SDS011;3845;48.120;11.534;2023-07-13T01:11:08;2.07;;;1.87;;
7607;SDS011;3845;48.120;11.534;2023-07-13T01:13:33;1.90;;;1.73;;
7607;SDS011;3845;48.120;11.534;2023-07-13T01:15:58;2.40;;;1.80;;
7607;SDS011;3845;48.120;11.534;2023-07-13T01:18:28;2.20;;;1.80;;
7607;SDS011;3845;48.120;11.534;2023-07-13T01:20:55;1.70;;;1.60;;
7607;SDS011;3845;48.120;11.534;2023-07-13T01:23:25;2.03;;;1.70;;
7607;SDS011;3845;48.120;11.534;2023-07-13T01:25:52;2.40;;;1.80;;
7607;SDS011;3845;48.120;11.534;2023-07-13T01:28:18;3.70;;;1.60;;
7607;SDS011;3845;48.120;11.534;2023-07-13T01:30:44;2.90;;;1.93;;
7607;SDS011;3845;48.120;11.534;2023-07-13T01:33:11;2.77;;;2.20;;
7607;SDS011;3845;48.120;11.534;2023-07-13T01:35:41;2.17;;;1.87;;
7607;SDS011;3845;48.120;11.534;2023-07-13T01:38:08;2.50;;;1.80;;
7607;SDS011;3845;48.120;11.534;2023-07-13T01:40:34;2.03;;;1.83;;
7607;SDS011;3845;48.120;11.534;2023-07-13T01:43:00;3.03;;;1.63;;
7607;SDS011;3845;48.120;11.534;2023-07-13T01:45:25;3.27;;;1.70;;
7607;SDS011;3845;48.120;11.534;2023-07-13T01:47:51;1.83;;;1.60;;
7607;SDS011;3845;48.120;11.534;2023-07-13T01:50:16;1.93;;;1.70;;
7607;SDS011;3845;48.120;11.534;2023-07-13T01:52:41;2.43;;;1.70;;
7607;SDS011;3845;48.120;11.534;2023-07-13T01:55:07;1.87;;;1.70;;
7607;SDS011;3845;48.120;11.534;2023-07-13T01:57:33;1.93;;;1.73;;
7607;SDS011;3845;48.120;11.534;2023-07-13T01:59:58;2.17;;;1.63;;
7607;SDS011;3845;48.120;11.534;2023-07-13T02:02:24;1.90;;;1.70;;
7607;SDS011;3845;48.120;11.534;2023-07-13T02:04:49;2.60;;;2.10;;
7607;SDS011;3845;48.120;11.534;2023-07-13T02:07:14;3.10;;;2.10;;
7607;SDS011;3845;48.120;11.534;2023-07-13T02:09:40;2.77;;;2.10;;
7607;SDS011;3845;48.120;11.534;2023-07-13T02:12:07;3.27;;;2.27;;
7607;SDS011;3845;48.120;11.534;2023-07-13T02:14:32;3.03;;;2.07;;
7607;SDS011;3845;48.120;11.534;2023-07-13T02:16:57;4.10;;;2.20;;
7607;SDS011;3845;48.120;11.534;2023-07-13T02:19:23;2.03;;;1.83;;
7607;SDS011;3845;48.120;11.534;2023-07-13T02:21:48;2.30;;;2.10;;
7607;SDS011;3845;48.120;11.534;2023-07-13T02:24:14;2.43;;;1.90;;
7607;SDS011;3845;48.120;11.534;2023-07-13T02:26:42;2.23;;;1.70;;
7607;SDS011;3845;48.120;11.534;2023-07-13T02:29:08;1.90;;;1.70;;
7607;SDS011;3845;48.120;11.534;2023-07-13T02:31:34;2.33;;;1.97;;
7607;SDS011;3845;48.120;11.534;2023-07-13T02:34:00;3.23;;;1.87;;
7607;SDS011;3845;48.120;11.534;2023-07-13T02:36:26;2.00;;;1.80;;
7607;SDS011;3845;48.120;11.534;2023-07-13T02:38:51;2.23;;;2.03;;
7607;SDS011;3845;48.120;11.534;2023-07-13T02:41:16;2.20;;;1.90;;
7607;SDS011;3845;48.120;11.534;2023-07-13T02:43:42;3.57;;;2.37;;
7607;SDS011;3845;48.120;11.534;2023-07-13T02:46:07;4.93;;;2.77;;
7607;SDS011;3845;48.120;11.534;2023-07-13T02:48:33;3.30;;;2.60;;
7607;SDS011;3845;48.120;11.534;2023-07-13T02:50:59;3.37;;;2.90;;
7607;SDS011;3845;48.120;11.534;2023-07-13T02:53:24;3.10;;;2.80;;
7607;SDS011;3845;48.120;11.534;2023-07-13T02:55:50;3.07;;;2.70;;
7607;SDS011;3845;48.120;11.534;2023-07-13T02:58:15;3.93;;;2.80;;
7607;SDS011;3845;48.120;11.534;2023-07-13T03:00:45;4.00;;;3.03;;
7607;SDS011;3845;48.120;11.534;2023-07-13T03:03:11;3.00;;;2.63;;
7607;SDS011;3845;48.120;11.534;2023-07-13T03:05:38;5.13;;;3.20;;
7607;SDS011;3845;48.120;11.534;2023-07-13T03:08:04;4.33;;;3.20;;
7607;SDS011;3845;48.120;11.534;2023-07-13T03:10:31;4.77;;;3.13;;
7607;SDS011;3845;48.120;11.534;2023-07-13T03:12:57;5.07;;;2.90;;
7607;SDS011;3845;48.120;11.534;2023-07-13T03:15:22;4.40;;;2.90;;
7607;SDS011;3845;48.120;11.534;2023-07-13T03:17:48;4.03;;;2.97;;
7607;SDS011;3845;48.120;11.534;2023-07-13T03:20:13;3.50;;;3.00;;
7607;SDS011;3845;48.120;11.534;2023-07-13T03:22:39;3.23;;;2.80;;
7607;SDS011;3845;48.120;11.534;2023-07-13T03:25:04;4.50;;;2.77;;
7607;SDS011;3845;48.120;11.534;2023-07-13T03:27:30;5.03;;;3.37;;
7607;SDS011;3845;48.120;11.534;2023-07-13T03:29:55;3.27;;;2.80;;
7607;SDS011;3845;48.120;11.534;2023-07-13T03:32:20;4.73;;;3.53;;
7607;SDS011;3845;48.120;11.534;2023-07-13T03:34:46;4.00;;;3.60;;
7607;SDS011;3845;48.120;11.534;2023-07-13T03:37:11;3.77;;;3.00;;
7607;SDS011;3845;48.120;11.534;2023-07-13T03:39:36;4.13;;;2.90;;
7607;SDS011;3845;48.120;11.534;2023-07-13T03:42:02;2.83;;;2.40;;
7607;SDS011;3845;48.120;11.534;2023-07-13T03:44:27;3.70;;;2.33;;
7607;SDS011;3845;48.120;11.534;2023-07-13T03:46:52;2.57;;;2.37;;
7607;SDS011;3845;48.120;11.534;2023-07-13T03:49:18;2.40;;;2.20;;
7607;SDS011;3845;48.120;11.534;2023-07-13T03:51:43;2.90;;;2.40;;
7607;SDS011;3845;48.120;11.534;2023-07-13T03:54:08;2.60;;;2.30;;
7607;SDS011;3845;48.120;11.534;2023-07-13T03:56:34;3.57;;;2.20;;
7607;SDS011;3845;48.120;11.534;2023-07-13T03:58:59;3.53;;;2.10;;
7607;SDS011;3845;48.120;11.534;2023-07-13T04:01:25;3.60;;;2.23;;
7607;SDS011;3845;48.120;11.534;2023-07-13T04:03:51;2.50;;;2.20;;
7607;SDS011;3845;48.120;11.534;2023-07-13T04:06:18;4.20;;;2.10;;
7607;SDS011;3845;48.120;11.534;2023-07-13T04:08:49;2.57;;;2.20;;
7607;SDS011;3845;48.120;11.534;2023-07-13T04:11:19;2.43;;;2.20;;
7607;SDS011;3845;48.120;11.534;2023-07-13T04:13:46;2.30;;;2.00;;
7607;SDS011;3845;48.120;11.534;2023-07-13T04:16:13;2.47;;;2.27;;
7607;SDS011;3845;48.120;11.534;2023-07-13T04:18:39;2.67;;;2.20;;
7607;SDS011;3845;48.120;11.534;2023-07-13T04:21:04;2.40;;;2.10;;
7607;SDS011;3845;48.120;11.534;2023-07-13T04:23:29;2.70;;;2.10;;
7607;SDS011;3845;48.120;11.534;2023-07-13T04:25:55;2.10;;;1.90;;
7607;SDS011;3845;48.120;11.534;2023-07-13T04:28:21;2.33;;;1.90;;
7607;SDS011;3845;48.120;11.534;2023-07-13T04:30:47;2.70;;;2.10;;
7607;SDS011;3845;48.120;11.534;2023-07-13T04:33:13;2.43;;;2.03;;
7607;SDS011;3845;48.120;11.534;2023-07-13T04:35:38;2.37;;;2.00;;
7607;SDS011;3845;48.120;11.534;2023-07-13T04:38:04;2.33;;;1.90;;
7607;SDS011;3845;48.120;11.534;2023-07-13T04:40:29;3.70;;;2.00;;
7607;SDS011;3845;48.120;11.534;2023-07-13T04:42:55;3.80;;;2.10;;
7607;SDS011;3845;48.120;11.534;2023-07-13T04:45:21;2.87;;;2.40;;
7607;SDS011;3845;48.120;11.534;2023-07-13T04:47:46;3.50;;;2.03;;
7607;SDS011;3845;48.120;11.534;2023-07-13T04:50:13;2.60;;;2.00;;
7607;SDS011;3845;48.120;11.534;2023-07-13T04:52:43;2.40;;;1.80;;
7607;SDS011;3845;48.120;11.534;2023-07-13T04:55:09;2.47;;;2.07;;
7607;SDS011;3845;48.120;11.534;2023-07-13T04:57:34;2.43;;;2.17;;
7607;SDS011;3845;48.120;11.534;2023-07-13T04:59:59;2.13;;;1.93;;
7607;SDS011;3845;48.120;11.534;2023-07-13T05:02:26;3.57;;;2.30;;
7607;SDS011;3845;48.120;11.534;2023-07-13T05:04:53;2.90;;;2.00;;
7607;SDS011;3845;48.120;11.534;2023-07-13T05:07:18;3.03;;;2.10;;
7607;SDS011;3845;48.120;11.534;2023-07-13T05:09:43;2.87;;;2.10;;
7607;SDS011;3845;48.120;11.534;2023-07-13T05:12:09;2.63;;;1.97;;
7607;SDS011;3845;48.120;11.534;2023-07-13T05:14:34;2.00;;;1.80;;
7607;SDS011;3845;48.120;11.534;2023-07-13T05:17:00;2.60;;;2.10;;
7607;SDS011;3845;48.120;11.534;2023-07-13T05:19:26;2.40;;;1.90;;
7607;SDS011;3845;48.120;11.534;2023-07-13T05:21:51;2.47;;;2.03;;
7607;SDS011;3845;48.120;11.534;2023-07-13T05:24:17;2.43;;;2.10;;
7607;SDS011;3845;48.120;11.534;2023-07-13T05:26:42;2.80;;;1.90;;
7607;SDS011;3845;48.120;11.534;2023-07-13T05:29:07;2.60;;;2.40;;
7607;SDS011;3845;48.120;11.534;2023-07-13T05:31:33;4.33;;;2.37;;
7607;SDS011;3845;48.120;11.534;2023-07-13T05:33:58;3.60;;;2.53;;
7607;SDS011;3845;48.120;11.534;2023-07-13T05:36:23;2.50;;;2.30;;
7607;SDS011;3845;48.120;11.534;2023-07-13T05:38:48;3.50;;;2.40;;
7607;SDS011;3845;48.120;11.534;2023-07-13T05:41:14;3.07;;;2.23;;
7607;SDS011;3845;48.120;11.534;2023-07-13T05:43:39;2.47;;;2.20;;
7607;SDS011;3845;48.120;11.534;2023-07-13T05:46:04;3.17;;;2.20;;
7607;SDS011;3845;48.120;11.534;2023-07-13T05:48:30;3.47;;;2.37;;
7607;SDS011;3845;48.120;11.534;2023-07-13T05:50:55;4.17;;;3.70;;
7607;SDS011;3845;48.120;11.534;2023-07-13T05:53:20;6.80;;;6.10;;
7607;SDS011;3845;48.120;11.534;2023-07-13T05:55:46;6.90;;;6.20;;
7607;SDS011;3845;48.120;11.534;2023-07-13T05:58:12;7.43;;;6.63;;
7607;SDS011;3845;48.120;11.534;2023-07-13T06:00:38;4.77;;;3.20;;
7607;SDS011;3845;48.120;11.534;2023-07-13T06:03:05;4.23;;;2.80;;
7607;SDS011;3845;48.120;11.534;2023-07-13T06:05:31;3.07;;;2.63;;
7607;SDS011;3845;48.120;11.534;2023-07-13T06:07:58;4.53;;;2.73;;
7607;SDS011;3845;48.120;11.534;2023-07-13T06:10:24;2.93;;;2.10;;
7607;SDS011;3845;48.120;11.534;2023-07-13T06:12:49;2.90;;;2.43;;
7607;SDS011;3845;48.120;11.534;2023-07-13T06:15:14;3.87;;;2.37;;
7607;SDS011;3845;48.120;11.534;2023-07-13T06:17:40;3.30;;;2.30;;
7607;SDS011;3845;48.120;11.534;2023-07-13T06:20:06;4.07;;;2.50;;
7607;SDS011;3845;48.120;11.534;2023-07-13T06:22:32;4.43;;;2.90;;
7607;SDS011;3845;48.120;11.534;2023-07-13T06:24:57;2.97;;;2.50;;
7607;SDS011;3845;48.120;11.534;2023-07-13T06:27:22;4.20;;;3.17;;
7607;SDS011;3845;48.120;11.534;2023-07-13T06:29:48;4.07;;;2.60;;
7607;SDS011;3845;48.120;11.534;2023-07-13T06:32:13;4.70;;;2.77;;
7607;SDS011;3845;48.120;11.534;2023-07-13T06:34:38;5.50;;;3.60;;
7607;SDS011;3845;48.120;11.534;2023-07-13T06:37:04;3.37;;;2.87;;
7607;SDS011;3845;48.120;11.534;2023-07-13T06:39:29;2.77;;;2.30;;
7607;SDS011;3845;48.120;11.534;2023-07-13T06:41:55;4.77;;;2.70;;
7607;SDS011;3845;48.120;11.534;2023-07-13T06:44:20;4.30;;;2.90;;
7607;SDS011;3845;48.120;11.534;2023-07-13T06:46:45;2.80;;;2.40;;
7607;SDS011;3845;48.120;11.534;2023-07-13T06:49:10;3.03;;;2.30;;
7607;SDS011;3845;48.120;11.534;2023-07-13T06:51:36;4.07;;;2.00;;
7607;SDS011;3845;48.120;11.534;2023-07-13T06:54:01;3.07;;;2.33;;
7607;SDS011;3845;48.120;11.534;2023-07-13T06:56:26;3.43;;;2.30;;
7607;SDS011;3845;48.120;11.534;2023-07-13T06:58:52;3.17;;;2.70;;
7607;SDS011;3845;48.120;11.534;2023-07-13T07:01:17;3.93;;;2.77;;
7607;SDS011;3845;48.120;11.534;2023-07-13T07:03:42;2.57;;;2.30;;
7607;SDS011;3845;48.120;11.534;2023-07-13T07:06:17;4.33;;;3.90;;
7607;SDS011;3845;48.120;11.534;2023-07-13T07:08:44;5.83;;;3.10;;
7607;SDS011;3845;48.120;11.534;2023-07-13T07:11:12;5.90;;;2.70;;
7607;SDS011;3845;48.120;11.534;2023-07-13T07:13:38;2.70;;;2.10;;
7607;SDS011;3845;48.120;11.534;2023-07-13T07:16:04;5.03;;;2.80;;
7607;SDS011;3845;48.120;11.534;2023-07-13T07:18:29;4.20;;;2.90;;
7607;SDS011;3845;48.120;11.534;2023-07-13T07:20:54;4.27;;;2.20;;
7607;SDS011;3845;48.120;11.534;2023-07-13T07:23:20;3.90;;;2.33;;
7607;SDS011;3845;48.120;11.534;2023-07-13T07:25:45;7.80;;;2.83;;
7607;SDS011;3845;48.120;11.534;2023-07-13T07:28:11;3.87;;;2.50;;
7607;SDS011;3845;48.120;11.534;2023-07-13T07:30:41;4.53;;;3.17;;
7607;SDS011;3845;48.120;11.534;2023-07-13T07:33:07;5.13;;;3.20;;
7607;SDS011;3845;48.120;11.534;2023-07-13T07:35:33;6.30;;;3.20;;
7607;SDS011;3845;48.120;11.534;2023-07-13T07:37:58;3.13;;;2.53;;
7607;SDS011;3845;48.120;11.534;2023-07-13T07:40:23;5.83;;;2.47;;
7607;SDS011;3845;48.120;11.534;2023-07-13T07:42:49;4.43;;;2.80;;
7607;SDS011;3845;48.120;11.534;2023-07-13T07:45:14;7.80;;;3.03;;
7607;SDS011;3845;48.120;11.534;2023-07-13T07:47:39;4.50;;;2.73;;
7607;SDS011;3845;48.120;11.534;2023-07-13T07:50:05;5.03;;;2.97;;
7607;SDS011;3845;48.120;11.534;2023-07-13T07:52:31;5.73;;;2.43;;
7607;SDS011;3845;48.120;11.534;2023-07-13T07:54:56;3.53;;;2.70;;
7607;SDS011;3845;48.120;11.534;2023-07-13T07:57:21;4.80;;;3.00;;
7607;SDS011;3845;48.120;11.534;2023-07-13T07:59:47;4.47;;;2.90;;
7607;SDS011;3845;48.120;11.534;2023-07-13T08:02:13;6.33;;;5.00;;
7607;SDS011;3845;48.120;11.534;2023-07-13T08:04:38;4.97;;;4.23;;
7607;SDS011;3845;48.120;11.534;2023-07-13T08:07:04;4.47;;;2.67;;
7607;SDS011;3845;48.120;11.534;2023-07-13T08:09:29;5.97;;;2.50;;
7607;SDS011;3845;48.120;11.534;2023-07-13T08:11:55;4.43;;;2.80;;
7607;SDS011;3845;48.120;11.534;2023-07-13T08:14:21;4.07;;;3.00;;
7607;SDS011;3845;48.120;11.534;2023-07-13T08:16:46;3.80;;;2.30;;
7607;SDS011;3845;48.120;11.534;2023-07-13T08:19:11;2.80;;;2.50;;
7607;SDS011;3845;48.120;11.534;2023-07-13T08:21:37;3.13;;;2.23;;
7607;SDS011;3845;48.120;11.534;2023-07-13T08:24:02;6.10;;;2.90;;
7607;SDS011;3845;48.120;11.534;2023-07-13T08:26:28;7.20;;;2.87;;
7607;SDS011;3845;48.120;11.534;2023-07-13T08:28:53;2.97;;;2.53;;
7607;SDS011;3845;48.120;11.534;2023-07-13T08:31:19;4.30;;;2.73;;
7607;SDS011;3845;48.120;11.534;2023-07-13T08:33:44;6.07;;;2.60;;
7607;SDS011;3845;48.120;11.534;2023-07-13T08:36:10;4.00;;;2.97;;
7607;SDS011;3845;48.120;11.534;2023-07-13T08:38:35;5.93;;;2.93;;
7607;SDS011;3845;48.120;11.534;2023-07-13T08:41:02;3.87;;;2.40;;
7607;SDS011;3845;48.120;11.534;2023-07-13T08:43:38;2.97;;;2.30;;
7607;SDS011;3845;48.120;11.534;2023-07-13T08:48:36;3.30;;;2.30;;
7607;SDS011;3845;48.120;11.534;2023-07-13T08:51:09;3.53;;;2.47;;
7607;SDS011;3845;48.120;11.534;2023-07-13T08:53:48;4.37;;;2.50;;
7607;SDS011;3845;48.120;11.534;2023-07-13T08:56:24;3.07;;;2.30;;
7607;SDS011;3845;48.120;11.534;2023-07-13T08:58:58;4.27;;;2.17;;
7607;SDS011;3845;48.120;11.534;2023-07-13T09:04:19;5.07;;;2.47;;
7607;SDS011;3845;48.120;11.534;2023-07-13T09:12:31;2.90;;;2.20;;
7607;SDS011;3845;48.120;11.534;2023-07-13T09:14:59;2.77;;;2.00;;
7607;SDS011;3845;48.120;11.534;2023-07-13T09:18:08;4.10;;;2.00;;
7607;SDS011;3845;48.120;11.534;2023-07-13T09:23:11;4.60;;;2.30;;
7607;SDS011;3845;48.120;11.534;2023-07-13T09:25:38;3.90;;;2.40;;
7607;SDS011;3845;48.120;11.534;2023-07-13T09:28:11;2.40;;;1.80;;
7607;SDS011;3845;48.120;11.534;2023-07-13T09:30:43;2.67;;;2.17;;
7607;SDS011;3845;48.120;11.534;2023-07-13T09:33:18;3.17;;;2.03;;
7607;SDS011;3845;48.120;11.534;2023-07-13T09:35:44;4.40;;;2.07;;
7607;SDS011;3845;48.120;11.534;2023-07-13T09:38:13;3.40;;;2.03;;
7607;SDS011;3845;48.120;11.534;2023-07-13T09:43:25;3.47;;;2.07;;
7607;SDS011;3845;48.120;11.534;2023-07-13T09:45:50;4.77;;;2.20;;
7607;SDS011;3845;48.120;11.534;2023-07-13T09:48:17;2.10;;;1.90;;
7607;SDS011;3845;48.120;11.534;2023-07-13T09:50:43;2.60;;;1.87;;
7607;SDS011;3845;48.120;11.534;2023-07-13T09:53:13;4.30;;;2.10;;
7607;SDS011;3845;48.120;11.534;2023-07-13T09:55:40;3.00;;;1.90;;
7607;SDS011;3845;48.120;11.534;2023-07-13T09:58:12;2.70;;;2.10;;
7607;SDS011;3845;48.120;11.534;2023-07-13T10:00:55;2.60;;;2.07;;
7607;SDS011;3845;48.120;11.534;2023-07-13T10:03:26;2.77;;;2.00;;
7607;SDS011;3845;48.120;11.534;2023-07-13T10:05:53;3.73;;;2.30;;
7607;SDS011;3845;48.120;11.534;2023-07-13T10:08:26;4.23;;;2.10;;
7607;SDS011;3845;48.120;11.534;2023-07-13T10:11:09;3.10;;;1.90;;
7607;SDS011;3845;48.120;11.534;2023-07-13T10:13:41;3.20;;;2.60;;
7607;SDS011;3845;48.120;11.534;2023-07-13T10:16:11;4.07;;;2.50;;
7607;SDS011;3845;48.120;11.534;2023-07-13T10:18:48;3.40;;;2.40;;
7607;SDS011;3845;48.120;11.534;2023-07-13T10:21:21;3.63;;;2.20;;
7607;SDS011;3845;48.120;11.534;2023-07-13T10:23:49;3.40;;;2.00;;
7607;SDS011;3845;48.120;11.534;2023-07-13T10:26:19;7.00;;;2.20;;
7607;SDS011;3845;48.120;11.534;2023-07-13T10:28:49;3.70;;;2.13;;
7607;SDS011;3845;48.120;11.534;2023-07-13T10:31:18;2.73;;;1.80;;
7607;SDS011;3845;48.120;11.534;2023-07-13T10:33:44;2.87;;;2.10;;
7607;SDS011;3845;48.120;11.534;2023-07-13T10:36:14;2.00;;;1.57;;
7607;SDS011;3845;48.120;11.534;2023-07-13T10:38:43;3.57;;;1.80;;
7607;SDS011;3845;48.120;11.534;2023-07-13T10:41:16;4.40;;;1.80;;
7607;SDS011;3845;48.120;11.534;2023-07-13T10:43:45;4.37;;;1.77;;
7607;SDS011;3845;48.120;11.534;2023-07-13T10:46:15;2.03;;;1.60;;
7607;SDS011;3845;48.120;11.534;2023-07-13T10:48:42;7.53;;;3.20;;
7607;SDS011;3845;48.120;11.534;2023-07-13T10:51:09;6.07;;;3.23;;
7607;SDS011;3845;48.120;11.534;2023-07-13T10:53:36;3.63;;;2.20;;
7607;SDS011;3845;48.120;11.534;2023-07-13T10:56:10;4.80;;;2.00;;
7607;SDS011;3845;48.120;11.534;2023-07-13T11:01:39;4.03;;;1.57;;
7607;SDS011;3845;48.120;11.534;2023-07-13T11:04:25;4.07;;;1.90;;
7607;SDS011;3845;48.120;11.534;2023-07-13T11:07:09;2.80;;;1.77;;
7607;SDS011;3845;48.120;11.534;2023-07-13T11:12:06;5.27;;;3.47;;
7607;SDS011;3845;48.120;11.534;2023-07-13T11:14:39;2.90;;;2.00;;
7607;SDS011;3845;48.120;11.534;2023-07-13T11:20:08;5.20;;;3.73;;
7607;SDS011;3845;48.120;11.534;2023-07-13T11:22:44;6.03;;;3.50;;
7607;SDS011;3845;48.120;11.534;2023-07-13T11:36:05;3.40;;;2.83;;
7607;SDS011;3845;48.120;11.534;2023-07-13T11:40:58;4.60;;;1.97;;
7607;SDS011;3845;48.120;11.534;2023-07-13T11:43:28;2.93;;;2.00;;
7607;SDS011;3845;48.120;11.534;2023-07-13T11:45:54;3.77;;;2.00;;
7607;SDS011;3845;48.120;11.534;2023-07-13T11:48:20;8.23;;;3.70;;
7607;SDS011;3845;48.120;11.534;2023-07-13T11:50:50;3.80;;;2.33;;
7607;SDS011;3845;48.120;11.534;2023-07-13T11:53:16;11.37;;;3.73;;
7607;SDS011;3845;48.120;11.534;2023-07-13T11:55:42;6.57;;;2.13;;
7607;SDS011;3845;48.120;11.534;2023-07-13T11:58:07;4.80;;;2.03;;
7607;SDS011;3845;48.120;11.534;2023-07-13T12:00:34;2.27;;;1.70;;
7607;SDS011;3845;48.120;11.534;2023-07-13T12:03:00;2.80;;;1.97;;
7607;SDS011;3845;48.120;11.534;2023-07-13T12:05:27;3.37;;;1.90;;
7607;SDS011;3845;48.120;11.534;2023-07-13T12:07:54;2.17;;;1.73;;
7607;SDS011;3845;48.120;11.534;2023-07-13T12:10:27;5.67;;;2.30;;
7607;SDS011;3845;48.120;11.534;2023-07-13T12:12:57;4.67;;;2.03;;
7607;SDS011;3845;48.120;11.534;2023-07-13T12:15:36;6.37;;;3.30;;
7607;SDS011;3845;48.120;11.534;2023-07-13T12:18:09;4.57;;;2.37;;
7607;SDS011;3845;48.120;11.534;2023-07-13T12:20:38;2.90;;;2.00;;
7607;SDS011;3845;48.120;11.534;2023-07-13T12:25:55;2.90;;;1.70;;
7607;SDS011;3845;48.120;11.534;2023-07-13T12:28:28;3.73;;;1.90;;
7607;SDS011;3845;48.120;11.534;2023-07-13T12:31:00;2.27;;;1.53;;
7607;SDS011;3845;48.120;11.534;2023-07-13T12:33:30;2.30;;;1.60;;
7607;SDS011;3845;48.120;11.534;2023-07-13T12:35:57;5.10;;;2.87;;
7607;SDS011;3845;48.120;11.534;2023-07-13T12:38:26;4.30;;;2.70;;
7607;SDS011;3845;48.120;11.534;2023-07-13T12:40:52;5.47;;;2.40;;
7607;SDS011;3845;48.120;11.534;2023-07-13T12:43:19;3.73;;;2.23;;
7607;SDS011;3845;48.120;11.534;2023-07-13T12:46:02;4.27;;;2.23;;
7607;SDS011;3845;48.120;11.534;2023-07-13T12:48:40;3.50;;;2.37;;
7607;SDS011;3845;48.120;11.534;2023-07-13T12:51:08;5.43;;;4.10;;
7607;SDS011;3845;48.120;11.534;2023-07-13T12:53:39;4.77;;;3.00;;
7607;SDS011;3845;48.120;11.534;2023-07-13T12:56:06;2.97;;;2.40;;
7607;SDS011;3845;48.120;11.534;2023-07-13T12:58:38;2.87;;;2.00;;
7607;SDS011;3845;48.120;11.534;2023-07-13T13:01:05;3.13;;;1.77;;
7607;SDS011;3845;48.120;11.534;2023-07-13T13:03:33;4.57;;;1.90;;
7607;SDS011;3845;48.120;11.534;2023-07-13T13:06:06;2.13;;;1.60;;
7607;SDS011;3845;48.120;11.534;2023-07-13T13:08:41;2.60;;;1.80;;
7607;SDS011;3845;48.120;11.534;2023-07-13T13:11:08;2.30;;;1.70;;
7607;SDS011;3845;48.120;11.534;2023-07-13T13:13:34;2.57;;;1.60;;
7607;SDS011;3845;48.120;11.534;2023-07-13T13:18:39;5.40;;;2.57;;
7607;SDS011;3845;48.120;11.534;2023-07-13T13:21:05;3.33;;;2.10;;
7607;SDS011;3845;48.120;11.534;2023-07-13T13:23:30;4.13;;;2.00;;
7607;SDS011;3845;48.120;11.534;2023-07-13T13:25:55;2.93;;;1.50;;
7607;SDS011;3845;48.120;11.534;2023-07-13T13:28:21;3.63;;;2.50;;
7607;SDS011;3845;48.120;11.534;2023-07-13T13:30:48;4.17;;;3.20;;
7607;SDS011;3845;48.120;11.534;2023-07-13T13:33:15;3.80;;;2.30;;
7607;SDS011;3845;48.120;11.534;2023-07-13T13:35:42;2.43;;;1.80;;
7607;SDS011;3845;48.120;11.534;2023-07-13T13:40:41;1.80;;;1.53;;
7607;SDS011;3845;48.120;11.534;2023-07-13T13:43:13;2.17;;;1.70;;
7607;SDS011;3845;48.120;11.534;2023-07-13T13:45:43;2.67;;;1.70;;
7607;SDS011;3845;48.120;11.534;2023-07-13T13:48:13;2.40;;;1.80;;
7607;SDS011;3845;48.120;11.534;2023-07-13T13:50:42;2.43;;;1.63;;
7607;SDS011;3845;48.120;11.534;2023-07-13T13:53:11;3.63;;;1.70;;
7607;SDS011;3845;48.120;11.534;2023-07-13T13:55:38;3.07;;;1.90;;
7607;SDS011;3845;48.120;11.534;2023-07-13T13:58:04;2.93;;;1.77;;
7607;SDS011;3845;48.120;11.534;2023-07-13T14:00:29;3.33;;;2.50;;
7607;SDS011;3845;48.120;11.534;2023-07-13T14:02:55;3.83;;;2.37;;
7607;SDS011;3845;48.120;11.534;2023-07-13T14:05:23;4.00;;;2.10;;
7607;SDS011;3845;48.120;11.534;2023-07-13T14:07:51;2.80;;;1.90;;
7607;SDS011;3845;48.120;11.534;2023-07-13T14:10:18;4.03;;;2.53;;
7607;SDS011;3845;48.120;11.534;2023-07-13T14:12:45;3.73;;;2.00;;
7607;SDS011;3845;48.120;11.534;2023-07-13T14:15:33;3.63;;;2.10;;
7607;SDS011;3845;48.120;11.534;2023-07-13T14:17:58;2.40;;;1.93;;
7607;SDS011;3845;48.120;11.534;2023-07-13T14:20:24;2.70;;;2.00;;
7607;SDS011;3845;48.120;11.534;2023-07-13T14:22:51;5.10;;;2.13;;
7607;SDS011;3845;48.120;11.534;2023-07-13T14:25:18;2.17;;;1.70;;
7607;SDS011;3845;48.120;11.534;2023-07-13T14:27:46;3.03;;;2.00;;
7607;SDS011;3845;48.120;11.534;2023-07-13T14:30:15;2.67;;;1.83;;
7607;SDS011;3845;48.120;11.534;2023-07-13T14:32:43;2.90;;;2.00;;
7607;SDS011;3845;48.120;11.534;2023-07-13T14:35:15;2.50;;;2.10;;
7607;SDS011;3845;48.120;11.534;2023-07-13T14:37:42;3.07;;;2.00;;
7607;SDS011;3845;48.120;11.534;2023-07-13T14:40:19;4.13;;;1.80;;
7607;SDS011;3845;48.120;11.534;2023-07-13T14:42:50;2.67;;;1.40;;
7607;SDS011;3845;48.120;11.534;2023-07-13T14:45:16;3.13;;;1.83;;
7607;SDS011;3845;48.120;11.534;2023-07-13T14:47:43;3.53;;;1.77;;
7607;SDS011;3845;48.120;11.534;2023-07-13T14:50:15;4.30;;;2.30;;
7607;SDS011;3845;48.120;11.534;2023-07-13T14:52:43;4.90;;;2.50;;
7607;SDS011;3845;48.120;11.534;2023-07-13T14:55:10;3.07;;;1.67;;
7607;SDS011;3845;48.120;11.534;2023-07-13T14:57:37;2.83;;;1.73;;
7607;SDS011;3845;48.120;11.534;2023-07-13T15:00:03;3.27;;;1.70;;
7607;SDS011;3845;48.120;11.534;2023-07-13T15:02:31;2.93;;;1.80;;
7607;SDS011;3845;48.120;11.534;2023-07-13T15:04:58;1.90;;;1.70;;
7607;SDS011;3845;48.120;11.534;2023-07-13T15:07:24;3.40;;;1.80;;
7607;SDS011;3845;48.120;11.534;2023-07-13T15:09:49;2.80;;;2.10;;
7607;SDS011;3845;48.120;11.534;2023-07-13T15:12:16;3.93;;;2.37;;
7607;SDS011;3845;48.120;11.534;2023-07-13T15:14:41;3.00;;;2.20;;
7607;SDS011;3845;48.120;11.534;2023-07-13T15:17:17;7.47;;;6.33;;
7607;SDS011;3845;48.120;11.534;2023-07-13T15:19:49;4.50;;;2.30;;
7607;SDS011;3845;48.120;11.534;2023-07-13T15:22:14;3.40;;;2.20;;
7607;SDS011;3845;48.120;11.534;2023-07-13T15:24:40;3.20;;;1.70;;
7607;SDS011;3845;48.120;11.534;2023-07-13T15:27:08;3.03;;;1.80;;
7607;SDS011;3845;48.120;11.534;2023-07-13T15:29:36;2.70;;;2.40;;
7607;SDS011;3845;48.120;11.534;2023-07-13T15:32:02;2.90;;;2.50;;
7607;SDS011;3845;48.120;11.534;2023-07-13T15:34:27;4.10;;;2.50;;
7607;SDS011;3845;48.120;11.534;2023-07-13T15:36:53;3.80;;;2.57;;
7607;SDS011;3845;48.120;11.534;2023-07-13T15:39:18;2.70;;;2.10;;
7607;SDS011;3845;48.120;11.534;2023-07-13T15:41:44;2.60;;;1.80;;
7607;SDS011;3845;48.120;11.534;2023-07-13T15:44:29;2.60;;;1.70;;
7607;SDS011;3845;48.120;11.534;2023-07-13T15:46:56;3.50;;;1.93;;